sensor_id;sensor_type;location;lat;lon;timestamp;temperature;humidity
5697;DHT22;2873;50.966;7.210;2023-04-07T00:01:29;8.80;99.90
5697;DHT22;2873;50.966;7.210;2023-04-07T00:03:54;8.70;99.90
5697;DHT22;2873;50.966;7.210;2023-04-07T00:06:20;8.70;99.90
5697;DHT22;2873;50.966;7.210;2023-04-07T00:08:45;8.70;99.90
5697;DHT22;2873;50.966;7.210;2023-04-07T00:11:11;8.70;99.90
5697;DHT22;2873;50.966;7.210;2023-04-07T00:13:36;8.70;99.90
5697;DHT22;2873;50.966;7.210;2023-04-07T00:16:02;8.80;99.90
5697;DHT22;2873;50.966;7.210;2023-04-07T00:18:27;8.80;99.90
5697;DHT22;2873;50.966;7.210;2023-04-07T00:20:53;8.80;99.90
5697;DHT22;2873;50.966;7.210;2023-04-07T00:23:18;8.90;99.90
5697;DHT22;2873;50.966;7.210;2023-04-07T00:25:47;8.90;99.90
5697;DHT22;2873;50.966;7.210;2023-04-07T00:28:12;8.80;99.90
5697;DHT22;2873;50.966;7.210;2023-04-07T00:30:38;8.90;99.90
5697;DHT22;2873;50.966;7.210;2023-04-07T00:33:03;8.90;99.90
5697;DHT22;2873;50.966;7.210;2023-04-07T00:35:29;8.90;99.90
5697;DHT22;2873;50.966;7.210;2023-04-07T00:37:54;8.90;99.90
5697;DHT22;2873;50.966;7.210;2023-04-07T00:40:20;8.90;99.90
5697;DHT22;2873;50.966;7.210;2023-04-07T00:42:45;8.90;99.90
5697;DHT22;2873;50.966;7.210;2023-04-07T00:45:11;9.00;99.90
5697;DHT22;2873;50.966;7.210;2023-04-07T00:47:37;9.00;99.90
5697;DHT22;2873;50.966;7.210;2023-04-07T00:50:03;9.10;99.90
5697;DHT22;2873;50.966;7.210;2023-04-07T00:52:31;9.10;99.90
5697;DHT22;2873;50.966;7.210;2023-04-07T00:54:57;9.20;99.90
5697;DHT22;2873;50.966;7.210;2023-04-07T00:57:23;9.20;99.90
5697;DHT22;2873;50.966;7.210;2023-04-07T00:59:53;9.20;99.90
5697;DHT22;2873;50.966;7.210;2023-04-07T01:02:25;9.10;99.90
5697;DHT22;2873;50.966;7.210;2023-04-07T01:07:34;9.20;99.90
5697;DHT22;2873;50.966;7.210;2023-04-07T01:10:05;9.10;99.90
5697;DHT22;2873;50.966;7.210;2023-04-07T01:12:53;9.10;99.90
5697;DHT22;2873;50.966;7.210;2023-04-07T01:15:23;9.10;99.90
5697;DHT22;2873;50.966;7.210;2023-04-07T01:17:54;9.10;99.90
5697;DHT22;2873;50.966;7.210;2023-04-07T01:20:26;9.10;99.90
5697;DHT22;2873;50.966;7.210;2023-04-07T01:22:56;9.20;99.90
5697;DHT22;2873;50.966;7.210;2023-04-07T01:25:42;9.10;99.90
5697;DHT22;2873;50.966;7.210;2023-04-07T01:28:48;9.10;99.90
5697;DHT22;2873;50.966;7.210;2023-04-07T01:31:19;9.10;99.90
5697;DHT22;2873;50.966;7.210;2023-04-07T01:33:45;9.20;99.90
5697;DHT22;2873;50.966;7.210;2023-04-07T01:36:12;9.20;99.90
5697;DHT22;2873;50.966;7.210;2023-04-07T01:38:40;9.30;99.90
5697;DHT22;2873;50.966;7.210;2023-04-07T01:41:06;9.40;99.90
5697;DHT22;2873;50.966;7.210;2023-04-07T01:43:33;9.50;99.90
5697;DHT22;2873;50.966;7.210;2023-04-07T01:46:01;9.50;99.90
5697;DHT22;2873;50.966;7.210;2023-04-07T01:48:28;9.60;99.90
5697;DHT22;2873;50.966;7.210;2023-04-07T01:50:54;9.60;99.90
5697;DHT22;2873;50.966;7.210;2023-04-07T01:53:22;9.50;99.90
5697;DHT22;2873;50.966;7.210;2023-04-07T01:55:47;9.50;99.90
5697;DHT22;2873;50.966;7.210;2023-04-07T01:58:13;9.50;99.90
5697;DHT22;2873;50.966;7.210;2023-04-07T02:00:39;9.60;99.90
5697;DHT22;2873;50.966;7.210;2023-04-07T02:03:12;9.70;99.90
5697;DHT22;2873;50.966;7.210;2023-04-07T02:05:46;9.80;99.90
5697;DHT22;2873;50.966;7.210;2023-04-07T02:08:15;9.90;99.90
5697;DHT22;2873;50.966;7.210;2023-04-07T02:10:42;9.90;99.90
5697;DHT22;2873;50.966;7.210;2023-04-07T02:13:15;9.80;99.90
5697;DHT22;2873;50.966;7.210;2023-04-07T02:15:41;9.80;99.90
5697;DHT22;2873;50.966;7.210;2023-04-07T02:18:08;9.80;99.90
5697;DHT22;2873;50.966;7.210;2023-04-07T02:20:36;9.90;99.90
5697;DHT22;2873;50.966;7.210;2023-04-07T02:23:02;9.90;99.90
5697;DHT22;2873;50.966;7.210;2023-04-07T02:25:29;10.00;99.90
5697;DHT22;2873;50.966;7.210;2023-04-07T02:27:57;9.90;99.90
5697;DHT22;2873;50.966;7.210;2023-04-07T02:30:23;9.90;99.90
5697;DHT22;2873;50.966;7.210;2023-04-07T02:32:49;9.90;99.90
5697;DHT22;2873;50.966;7.210;2023-04-07T02:35:15;9.90;99.90
5697;DHT22;2873;50.966;7.210;2023-04-07T02:37:42;10.00;99.90
5697;DHT22;2873;50.966;7.210;2023-04-07T02:40:08;10.00;99.90
5697;DHT22;2873;50.966;7.210;2023-04-07T02:42:34;10.00;99.90
5697;DHT22;2873;50.966;7.210;2023-04-07T02:45:04;10.10;99.90
5697;DHT22;2873;50.966;7.210;2023-04-07T02:47:30;10.10;99.90
5697;DHT22;2873;50.966;7.210;2023-04-07T02:49:55;10.10;99.90
5697;DHT22;2873;50.966;7.210;2023-04-07T02:52:21;10.20;99.90
5697;DHT22;2873;50.966;7.210;2023-04-07T02:54:46;10.20;99.90
5697;DHT22;2873;50.966;7.210;2023-04-07T02:57:12;10.20;99.90
5697;DHT22;2873;50.966;7.210;2023-04-07T02:59:40;10.20;99.90
5697;DHT22;2873;50.966;7.210;2023-04-07T03:02:06;10.20;99.90
5697;DHT22;2873;50.966;7.210;2023-04-07T03:04:31;10.20;99.90
5697;DHT22;2873;50.966;7.210;2023-04-07T03:06:57;10.20;99.90
5697;DHT22;2873;50.966;7.210;2023-04-07T03:09:23;10.20;99.90
5697;DHT22;2873;50.966;7.210;2023-04-07T03:11:49;10.20;99.90
5697;DHT22;2873;50.966;7.210;2023-04-07T03:14:14;10.30;99.90
5697;DHT22;2873;50.966;7.210;2023-04-07T03:16:40;10.20;99.90
5697;DHT22;2873;50.966;7.210;2023-04-07T03:19:06;10.20;99.90
5697;DHT22;2873;50.966;7.210;2023-04-07T03:21:32;10.20;99.90
5697;DHT22;2873;50.966;7.210;2023-04-07T03:23:57;10.20;99.90
5697;DHT22;2873;50.966;7.210;2023-04-07T03:26:23;10.20;99.90
5697;DHT22;2873;50.966;7.210;2023-04-07T03:28:48;10.20;99.90
5697;DHT22;2873;50.966;7.210;2023-04-07T03:31:14;10.20;99.90
5697;DHT22;2873;50.966;7.210;2023-04-07T03:33:39;10.30;99.90
5697;DHT22;2873;50.966;7.210;2023-04-07T03:36:05;10.30;99.90
5697;DHT22;2873;50.966;7.210;2023-04-07T03:38:31;10.30;99.90
5697;DHT22;2873;50.966;7.210;2023-04-07T03:40:57;10.30;99.90
5697;DHT22;2873;50.966;7.210;2023-04-07T03:43:22;10.30;99.90
5697;DHT22;2873;50.966;7.210;2023-04-07T03:45:48;10.30;99.90
5697;DHT22;2873;50.966;7.210;2023-04-07T03:48:13;10.30;99.90
5697;DHT22;2873;50.966;7.210;2023-04-07T03:50:39;10.30;99.90
5697;DHT22;2873;50.966;7.210;2023-04-07T03:53:05;10.40;99.90
5697;DHT22;2873;50.966;7.210;2023-04-07T03:55:32;10.40;99.90
5697;DHT22;2873;50.966;7.210;2023-04-07T03:57:58;10.30;99.90
5697;DHT22;2873;50.966;7.210;2023-04-07T04:00:24;10.40;99.90
5697;DHT22;2873;50.966;7.210;2023-04-07T04:02:50;10.40;99.90
5697;DHT22;2873;50.966;7.210;2023-04-07T04:05:15;10.50;99.90
5697;DHT22;2873;50.966;7.210;2023-04-07T04:07:41;10.50;99.90
5697;DHT22;2873;50.966;7.210;2023-04-07T04:10:07;10.50;99.90
5697;DHT22;2873;50.966;7.210;2023-04-07T04:12:32;10.60;99.90
5697;DHT22;2873;50.966;7.210;2023-04-07T04:14:58;10.50;99.90
5697;DHT22;2873;50.966;7.210;2023-04-07T04:17:24;10.60;99.90
5697;DHT22;2873;50.966;7.210;2023-04-07T04:19:50;10.60;99.90
5697;DHT22;2873;50.966;7.210;2023-04-07T04:22:15;10.60;99.90
5697;DHT22;2873;50.966;7.210;2023-04-07T04:24:41;10.60;99.90
5697;DHT22;2873;50.966;7.210;2023-04-07T04:27:07;10.60;99.90
5697;DHT22;2873;50.966;7.210;2023-04-07T04:29:32;10.60;99.90
5697;DHT22;2873;50.966;7.210;2023-04-07T04:31:58;10.60;99.90
5697;DHT22;2873;50.966;7.210;2023-04-07T04:34:23;10.70;99.90
5697;DHT22;2873;50.966;7.210;2023-04-07T04:36:49;10.70;99.90
5697;DHT22;2873;50.966;7.210;2023-04-07T04:39:15;10.80;99.90
5697;DHT22;2873;50.966;7.210;2023-04-07T04:41:40;10.70;99.90
5697;DHT22;2873;50.966;7.210;2023-04-07T04:44:06;10.70;99.90
5697;DHT22;2873;50.966;7.210;2023-04-07T04:46:32;10.70;99.90
5697;DHT22;2873;50.966;7.210;2023-04-07T04:48:57;10.70;99.90
5697;DHT22;2873;50.966;7.210;2023-04-07T04:51:23;10.70;99.90
5697;DHT22;2873;50.966;7.210;2023-04-07T04:53:48;10.70;99.90
5697;DHT22;2873;50.966;7.210;2023-04-07T04:56:14;10.70;99.90
5697;DHT22;2873;50.966;7.210;2023-04-07T04:58:40;10.70;99.90
5697;DHT22;2873;50.966;7.210;2023-04-07T05:01:13;10.70;99.90
5697;DHT22;2873;50.966;7.210;2023-04-07T05:03:38;10.70;99.90
5697;DHT22;2873;50.966;7.210;2023-04-07T05:06:05;10.70;99.90
5697;DHT22;2873;50.966;7.210;2023-04-07T05:08:30;10.70;99.90
5697;DHT22;2873;50.966;7.210;2023-04-07T05:10:56;10.70;99.90
5697;DHT22;2873;50.966;7.210;2023-04-07T05:13:21;10.80;99.90
5697;DHT22;2873;50.966;7.210;2023-04-07T05:15:47;10.80;99.90
5697;DHT22;2873;50.966;7.210;2023-04-07T05:18:13;10.70;99.90
5697;DHT22;2873;50.966;7.210;2023-04-07T05:20:38;10.70;99.90
5697;DHT22;2873;50.966;7.210;2023-04-07T05:23:04;10.70;99.90
5697;DHT22;2873;50.966;7.210;2023-04-07T05:25:29;10.70;99.90
5697;DHT22;2873;50.966;7.210;2023-04-07T05:27:56;10.60;99.90
5697;DHT22;2873;50.966;7.210;2023-04-07T05:30:22;10.60;99.90
5697;DHT22;2873;50.966;7.210;2023-04-07T05:32:48;10.60;99.90
5697;DHT22;2873;50.966;7.210;2023-04-07T05:35:13;10.60;99.90
5697;DHT22;2873;50.966;7.210;2023-04-07T05:37:39;10.60;99.90
5697;DHT22;2873;50.966;7.210;2023-04-07T05:40:05;10.60;99.90
5697;DHT22;2873;50.966;7.210;2023-04-07T05:42:31;10.60;99.90
5697;DHT22;2873;50.966;7.210;2023-04-07T05:44:56;10.60;99.90
5697;DHT22;2873;50.966;7.210;2023-04-07T05:47:22;10.60;99.90
5697;DHT22;2873;50.966;7.210;2023-04-07T05:49:47;10.50;99.90
5697;DHT22;2873;50.966;7.210;2023-04-07T05:52:13;10.60;99.90
5697;DHT22;2873;50.966;7.210;2023-04-07T05:54:39;10.60;99.90
5697;DHT22;2873;50.966;7.210;2023-04-07T05:57:05;10.60;99.90
5697;DHT22;2873;50.966;7.210;2023-04-07T05:59:32;10.50;99.90
5697;DHT22;2873;50.966;7.210;2023-04-07T06:01:57;10.60;99.90
5697;DHT22;2873;50.966;7.210;2023-04-07T06:04:23;10.60;99.90
5697;DHT22;2873;50.966;7.210;2023-04-07T06:06:48;10.50;99.90
5697;DHT22;2873;50.966;7.210;2023-04-07T06:09:14;10.60;99.90
5697;DHT22;2873;50.966;7.210;2023-04-07T06:11:39;10.60;99.90
5697;DHT22;2873;50.966;7.210;2023-04-07T06:14:05;10.60;99.90
5697;DHT22;2873;50.966;7.210;2023-04-07T06:16:30;10.60;99.90
5697;DHT22;2873;50.966;7.210;2023-04-07T06:18:56;10.60;99.90
5697;DHT22;2873;50.966;7.210;2023-04-07T06:21:22;10.60;99.90
5697;DHT22;2873;50.966;7.210;2023-04-07T06:23:47;10.60;99.90
5697;DHT22;2873;50.966;7.210;2023-04-07T06:26:13;10.60;99.90
5697;DHT22;2873;50.966;7.210;2023-04-07T06:28:40;10.60;99.90
5697;DHT22;2873;50.966;7.210;2023-04-07T06:31:07;10.50;99.90
5697;DHT22;2873;50.966;7.210;2023-04-07T06:33:32;10.60;99.90
5697;DHT22;2873;50.966;7.210;2023-04-07T06:35:58;10.50;99.90
5697;DHT22;2873;50.966;7.210;2023-04-07T06:38:24;10.50;99.90
5697;DHT22;2873;50.966;7.210;2023-04-07T06:40:50;10.50;99.90
5697;DHT22;2873;50.966;7.210;2023-04-07T06:43:15;10.50;99.90
5697;DHT22;2873;50.966;7.210;2023-04-07T06:45:41;10.50;99.90
5697;DHT22;2873;50.966;7.210;2023-04-07T06:48:07;10.50;99.90
5697;DHT22;2873;50.966;7.210;2023-04-07T06:50:32;10.40;99.90
5697;DHT22;2873;50.966;7.210;2023-04-07T06:52:58;10.40;99.90
5697;DHT22;2873;50.966;7.210;2023-04-07T06:55:23;10.40;99.90
5697;DHT22;2873;50.966;7.210;2023-04-07T06:57:49;10.40;99.90
5697;DHT22;2873;50.966;7.210;2023-04-07T07:00:16;10.40;99.90
5697;DHT22;2873;50.966;7.210;2023-04-07T07:02:42;10.40;99.90
5697;DHT22;2873;50.966;7.210;2023-04-07T07:05:08;10.40;99.90
5697;DHT22;2873;50.966;7.210;2023-04-07T07:07:33;10.50;99.90
5697;DHT22;2873;50.966;7.210;2023-04-07T07:09:59;10.40;99.90
5697;DHT22;2873;50.966;7.210;2023-04-07T07:12:25;10.40;99.90
5697;DHT22;2873;50.966;7.210;2023-04-07T07:14:50;10.30;99.90
5697;DHT22;2873;50.966;7.210;2023-04-07T07:17:16;10.30;99.90
5697;DHT22;2873;50.966;7.210;2023-04-07T07:19:41;10.30;99.90
5697;DHT22;2873;50.966;7.210;2023-04-07T07:22:07;10.30;99.90
5697;DHT22;2873;50.966;7.210;2023-04-07T07:24:33;10.30;99.90
5697;DHT22;2873;50.966;7.210;2023-04-07T07:26:59;10.40;99.90
5697;DHT22;2873;50.966;7.210;2023-04-07T07:29:24;10.40;99.90
5697;DHT22;2873;50.966;7.210;2023-04-07T07:31:50;10.40;99.90
5697;DHT22;2873;50.966;7.210;2023-04-07T07:34:15;10.40;99.90
5697;DHT22;2873;50.966;7.210;2023-04-07T07:36:41;10.40;99.90
5697;DHT22;2873;50.966;7.210;2023-04-07T07:39:06;10.40;99.90
5697;DHT22;2873;50.966;7.210;2023-04-07T07:41:32;10.40;99.90
5697;DHT22;2873;50.966;7.210;2023-04-07T07:43:58;10.30;99.90
5697;DHT22;2873;50.966;7.210;2023-04-07T07:46:23;10.40;99.90
5697;DHT22;2873;50.966;7.210;2023-04-07T07:48:50;10.40;99.90
5697;DHT22;2873;50.966;7.210;2023-04-07T07:51:16;10.40;99.90
5697;DHT22;2873;50.966;7.210;2023-04-07T07:53:43;10.40;99.90
5697;DHT22;2873;50.966;7.210;2023-04-07T07:56:09;10.40;99.90
5697;DHT22;2873;50.966;7.210;2023-04-07T07:58:35;10.40;99.90
5697;DHT22;2873;50.966;7.210;2023-04-07T08:01:01;10.40;99.90
5697;DHT22;2873;50.966;7.210;2023-04-07T08:03:26;10.40;99.90
5697;DHT22;2873;50.966;7.210;2023-04-07T08:05:52;10.50;99.90
5697;DHT22;2873;50.966;7.210;2023-04-07T08:08:17;10.60;99.90
5697;DHT22;2873;50.966;7.210;2023-04-07T08:10:43;10.70;99.90
5697;DHT22;2873;50.966;7.210;2023-04-07T08:13:08;10.80;99.90
5697;DHT22;2873;50.966;7.210;2023-04-07T08:15:34;10.80;99.90
5697;DHT22;2873;50.966;7.210;2023-04-07T08:18:00;10.90;99.90
5697;DHT22;2873;50.966;7.210;2023-04-07T08:20:28;10.90;99.90
5697;DHT22;2873;50.966;7.210;2023-04-07T08:22:54;10.90;99.90
5697;DHT22;2873;50.966;7.210;2023-04-07T08:25:20;10.90;99.90
5697;DHT22;2873;50.966;7.210;2023-04-07T08:27:45;11.00;99.90
5697;DHT22;2873;50.966;7.210;2023-04-07T08:30:11;11.10;99.90
5697;DHT22;2873;50.966;7.210;2023-04-07T08:32:45;11.20;99.90
5697;DHT22;2873;50.966;7.210;2023-04-07T08:35:11;11.20;99.90
5697;DHT22;2873;50.966;7.210;2023-04-07T08:37:38;11.20;99.90
5697;DHT22;2873;50.966;7.210;2023-04-07T08:40:04;11.20;99.90
5697;DHT22;2873;50.966;7.210;2023-04-07T08:42:32;11.10;99.90
5697;DHT22;2873;50.966;7.210;2023-04-07T08:45:05;11.10;99.90
5697;DHT22;2873;50.966;7.210;2023-04-07T08:47:32;11.20;99.90
5697;DHT22;2873;50.966;7.210;2023-04-07T08:50:03;11.20;99.90
5697;DHT22;2873;50.966;7.210;2023-04-07T08:52:53;11.10;99.90
5697;DHT22;2873;50.966;7.210;2023-04-07T08:55:19;11.10;99.90
5697;DHT22;2873;50.966;7.210;2023-04-07T08:57:45;11.10;99.90
5697;DHT22;2873;50.966;7.210;2023-04-07T09:00:12;11.10;99.90
5697;DHT22;2873;50.966;7.210;2023-04-07T09:02:40;11.10;99.90
5697;DHT22;2873;50.966;7.210;2023-04-07T09:05:07;11.20;99.90
5697;DHT22;2873;50.966;7.210;2023-04-07T09:07:35;11.20;99.90
5697;DHT22;2873;50.966;7.210;2023-04-07T09:10:01;11.20;99.90
5697;DHT22;2873;50.966;7.210;2023-04-07T09:12:28;11.20;99.90
5697;DHT22;2873;50.966;7.210;2023-04-07T09:14:54;11.20;99.90
5697;DHT22;2873;50.966;7.210;2023-04-07T09:17:20;11.20;99.90
5697;DHT22;2873;50.966;7.210;2023-04-07T09:19:47;11.20;99.90
5697;DHT22;2873;50.966;7.210;2023-04-07T09:22:13;11.20;99.90
5697;DHT22;2873;50.966;7.210;2023-04-07T09:24:40;11.20;99.90
5697;DHT22;2873;50.966;7.210;2023-04-07T09:27:17;11.20;99.90
5697;DHT22;2873;50.966;7.210;2023-04-07T09:29:44;11.20;99.90
5697;DHT22;2873;50.966;7.210;2023-04-07T09:32:10;11.20;99.90
5697;DHT22;2873;50.966;7.210;2023-04-07T09:34:38;11.10;99.90
5697;DHT22;2873;50.966;7.210;2023-04-07T09:37:05;11.20;99.90
5697;DHT22;2873;50.966;7.210;2023-04-07T09:39:31;11.20;99.90
5697;DHT22;2873;50.966;7.210;2023-04-07T09:41:57;11.20;99.90
5697;DHT22;2873;50.966;7.210;2023-04-07T09:44:24;11.10;99.90
5697;DHT22;2873;50.966;7.210;2023-04-07T09:46:55;11.20;99.90
5697;DHT22;2873;50.966;7.210;2023-04-07T09:49:22;11.30;99.90
5697;DHT22;2873;50.966;7.210;2023-04-07T09:52:06;11.20;99.90
5697;DHT22;2873;50.966;7.210;2023-04-07T09:54:40;11.20;99.90
5697;DHT22;2873;50.966;7.210;2023-04-07T09:57:08;11.20;99.90
5697;DHT22;2873;50.966;7.210;2023-04-07T09:59:35;11.30;99.90
5697;DHT22;2873;50.966;7.210;2023-04-07T10:02:02;11.30;99.90
5697;DHT22;2873;50.966;7.210;2023-04-07T10:04:28;11.20;99.90
5697;DHT22;2873;50.966;7.210;2023-04-07T10:06:54;11.30;99.90
5697;DHT22;2873;50.966;7.210;2023-04-07T10:09:23;11.30;99.90
5697;DHT22;2873;50.966;7.210;2023-04-07T10:11:50;11.30;99.90
5697;DHT22;2873;50.966;7.210;2023-04-07T10:14:17;11.30;99.90
5697;DHT22;2873;50.966;7.210;2023-04-07T10:16:45;11.30;99.90
5697;DHT22;2873;50.966;7.210;2023-04-07T10:19:12;11.30;99.90
5697;DHT22;2873;50.966;7.210;2023-04-07T10:21:40;11.30;99.90
5697;DHT22;2873;50.966;7.210;2023-04-07T10:26:59;11.30;99.90
5697;DHT22;2873;50.966;7.210;2023-04-07T10:29:32;11.40;99.90
5697;DHT22;2873;50.966;7.210;2023-04-07T10:32:00;11.40;99.90
5697;DHT22;2873;50.966;7.210;2023-04-07T10:37:14;11.40;99.90
5697;DHT22;2873;50.966;7.210;2023-04-07T10:39:43;11.40;99.90
5697;DHT22;2873;50.966;7.210;2023-04-07T10:45:04;11.40;99.90
5697;DHT22;2873;50.966;7.210;2023-04-07T10:47:30;11.40;99.90
5697;DHT22;2873;50.966;7.210;2023-04-07T10:50:20;11.50;99.90
5697;DHT22;2873;50.966;7.210;2023-04-07T10:53:07;11.50;99.90
5697;DHT22;2873;50.966;7.210;2023-04-07T10:58:20;11.70;99.90
5697;DHT22;2873;50.966;7.210;2023-04-07T11:03:22;11.90;99.90
5697;DHT22;2873;50.966;7.210;2023-04-07T11:05:48;12.10;99.90
5697;DHT22;2873;50.966;7.210;2023-04-07T11:08:14;12.10;99.90
5697;DHT22;2873;50.966;7.210;2023-04-07T11:10:40;12.10;99.90
5697;DHT22;2873;50.966;7.210;2023-04-07T11:13:11;12.10;99.90
5697;DHT22;2873;50.966;7.210;2023-04-07T11:15:37;12.00;99.90
5697;DHT22;2873;50.966;7.210;2023-04-07T11:18:13;12.10;99.90
5697;DHT22;2873;50.966;7.210;2023-04-07T11:20:49;12.10;99.90
5697;DHT22;2873;50.966;7.210;2023-04-07T11:23:16;12.00;99.90
5697;DHT22;2873;50.966;7.210;2023-04-07T11:25:44;12.00;99.90
5697;DHT22;2873;50.966;7.210;2023-04-07T11:28:11;12.00;99.90
5697;DHT22;2873;50.966;7.210;2023-04-07T11:30:38;12.10;99.90
5697;DHT22;2873;50.966;7.210;2023-04-07T11:33:03;12.20;99.90
5697;DHT22;2873;50.966;7.210;2023-04-07T11:35:29;12.10;99.90
5697;DHT22;2873;50.966;7.210;2023-04-07T11:37:59;12.20;99.90
5697;DHT22;2873;50.966;7.210;2023-04-07T11:40:33;12.20;99.90
5697;DHT22;2873;50.966;7.210;2023-04-07T11:42:59;12.20;99.90
5697;DHT22;2873;50.966;7.210;2023-04-07T11:45:25;12.20;99.90
5697;DHT22;2873;50.966;7.210;2023-04-07T11:47:50;12.20;99.90
5697;DHT22;2873;50.966;7.210;2023-04-07T11:50:16;12.20;99.90
5697;DHT22;2873;50.966;7.210;2023-04-07T11:52:47;12.10;99.90
5697;DHT22;2873;50.966;7.210;2023-04-07T11:55:19;12.10;99.90
5697;DHT22;2873;50.966;7.210;2023-04-07T11:57:46;12.10;99.90
5697;DHT22;2873;50.966;7.210;2023-04-07T12:00:13;12.10;99.90
5697;DHT22;2873;50.966;7.210;2023-04-07T12:02:39;12.10;99.90
5697;DHT22;2873;50.966;7.210;2023-04-07T12:05:05;12.10;99.90
5697;DHT22;2873;50.966;7.210;2023-04-07T12:07:31;12.20;99.90
5697;DHT22;2873;50.966;7.210;2023-04-07T12:09:57;12.30;99.90
5697;DHT22;2873;50.966;7.210;2023-04-07T12:12:27;12.30;99.90
5697;DHT22;2873;50.966;7.210;2023-04-07T12:14:54;12.40;99.90
5697;DHT22;2873;50.966;7.210;2023-04-07T12:19:46;12.40;99.90
5697;DHT22;2873;50.966;7.210;2023-04-07T12:22:12;12.40;99.90
5697;DHT22;2873;50.966;7.210;2023-04-07T12:24:37;12.40;99.90
5697;DHT22;2873;50.966;7.210;2023-04-07T12:27:03;12.40;99.90
5697;DHT22;2873;50.966;7.210;2023-04-07T12:29:29;12.40;99.90
5697;DHT22;2873;50.966;7.210;2023-04-07T12:31:55;12.30;99.90
5697;DHT22;2873;50.966;7.210;2023-04-07T12:34:20;12.40;99.90
5697;DHT22;2873;50.966;7.210;2023-04-07T12:36:47;12.50;99.90
5697;DHT22;2873;50.966;7.210;2023-04-07T12:39:15;12.50;99.90
5697;DHT22;2873;50.966;7.210;2023-04-07T12:41:41;12.40;99.90
5697;DHT22;2873;50.966;7.210;2023-04-07T12:44:08;12.40;99.90
5697;DHT22;2873;50.966;7.210;2023-04-07T12:46:34;12.40;99.90
5697;DHT22;2873;50.966;7.210;2023-04-07T12:48:59;12.30;99.90
5697;DHT22;2873;50.966;7.210;2023-04-07T12:51:25;12.40;99.90
5697;DHT22;2873;50.966;7.210;2023-04-07T12:53:51;12.30;99.90
5697;DHT22;2873;50.966;7.210;2023-04-07T12:56:18;12.40;99.90
5697;DHT22;2873;50.966;7.210;2023-04-07T12:58:44;12.50;99.90
5697;DHT22;2873;50.966;7.210;2023-04-07T13:01:10;12.50;99.90
5697;DHT22;2873;50.966;7.210;2023-04-07T13:03:36;12.50;99.90
5697;DHT22;2873;50.966;7.210;2023-04-07T13:06:01;12.50;99.90
5697;DHT22;2873;50.966;7.210;2023-04-07T13:08:28;12.60;99.90
5697;DHT22;2873;50.966;7.210;2023-04-07T13:10:55;12.70;99.90
5697;DHT22;2873;50.966;7.210;2023-04-07T13:13:21;12.70;99.90
5697;DHT22;2873;50.966;7.210;2023-04-07T13:15:47;12.70;99.90
5697;DHT22;2873;50.966;7.210;2023-04-07T13:18:12;12.70;99.90
5697;DHT22;2873;50.966;7.210;2023-04-07T13:20:38;12.70;99.90
5697;DHT22;2873;50.966;7.210;2023-04-07T13:23:04;12.70;99.90
5697;DHT22;2873;50.966;7.210;2023-04-07T13:25:29;12.70;99.90
5697;DHT22;2873;50.966;7.210;2023-04-07T13:27:55;12.80;99.90
5697;DHT22;2873;50.966;7.210;2023-04-07T13:30:21;12.80;99.90
5697;DHT22;2873;50.966;7.210;2023-04-07T13:32:46;12.90;99.90
5697;DHT22;2873;50.966;7.210;2023-04-07T13:35:16;13.00;99.90
5697;DHT22;2873;50.966;7.210;2023-04-07T13:37:42;13.10;99.90
5697;DHT22;2873;50.966;7.210;2023-04-07T13:40:09;13.10;99.90
5697;DHT22;2873;50.966;7.210;2023-04-07T13:42:35;13.10;99.90
5697;DHT22;2873;50.966;7.210;2023-04-07T13:45:01;13.20;99.90
5697;DHT22;2873;50.966;7.210;2023-04-07T13:47:26;13.20;99.90
5697;DHT22;2873;50.966;7.210;2023-04-07T13:49:54;13.20;99.90
5697;DHT22;2873;50.966;7.210;2023-04-07T13:52:20;13.20;99.90
5697;DHT22;2873;50.966;7.210;2023-04-07T13:54:46;13.20;99.90
5697;DHT22;2873;50.966;7.210;2023-04-07T13:57:12;13.20;99.90
5697;DHT22;2873;50.966;7.210;2023-04-07T13:59:43;13.20;99.90
5697;DHT22;2873;50.966;7.210;2023-04-07T14:02:09;13.10;99.90
5697;DHT22;2873;50.966;7.210;2023-04-07T14:04:34;13.10;99.90
5697;DHT22;2873;50.966;7.210;2023-04-07T14:07:00;13.00;99.90
5697;DHT22;2873;50.966;7.210;2023-04-07T14:09:26;12.90;99.90
5697;DHT22;2873;50.966;7.210;2023-04-07T14:11:51;12.90;99.90
5697;DHT22;2873;50.966;7.210;2023-04-07T14:14:17;12.90;99.90
5697;DHT22;2873;50.966;7.210;2023-04-07T14:16:42;12.90;99.90
5697;DHT22;2873;50.966;7.210;2023-04-07T14:19:08;12.90;99.90
5697;DHT22;2873;50.966;7.210;2023-04-07T14:21:34;12.90;99.90
5697;DHT22;2873;50.966;7.210;2023-04-07T14:23:59;13.00;99.90
5697;DHT22;2873;50.966;7.210;2023-04-07T14:26:25;13.10;99.90
5697;DHT22;2873;50.966;7.210;2023-04-07T14:28:51;13.20;99.90
5697;DHT22;2873;50.966;7.210;2023-04-07T14:31:17;13.20;99.90
5697;DHT22;2873;50.966;7.210;2023-04-07T14:33:43;13.30;99.90
5697;DHT22;2873;50.966;7.210;2023-04-07T14:36:10;13.40;99.90
5697;DHT22;2873;50.966;7.210;2023-04-07T14:38:35;13.50;99.90
5697;DHT22;2873;50.966;7.210;2023-04-07T14:41:02;13.50;99.90
5697;DHT22;2873;50.966;7.210;2023-04-07T14:43:28;13.50;99.90
5697;DHT22;2873;50.966;7.210;2023-04-07T14:45:54;13.50;99.90
5697;DHT22;2873;50.966;7.210;2023-04-07T14:48:20;13.60;99.90
5697;DHT22;2873;50.966;7.210;2023-04-07T14:50:46;13.60;99.90
5697;DHT22;2873;50.966;7.210;2023-04-07T14:53:12;13.60;99.90
5697;DHT22;2873;50.966;7.210;2023-04-07T14:55:38;13.40;99.90
5697;DHT22;2873;50.966;7.210;2023-04-07T14:58:05;13.40;99.90
5697;DHT22;2873;50.966;7.210;2023-04-07T15:00:31;13.40;99.90
5697;DHT22;2873;50.966;7.210;2023-04-07T15:02:56;13.50;99.90
5697;DHT22;2873;50.966;7.210;2023-04-07T15:05:22;13.50;99.90
5697;DHT22;2873;50.966;7.210;2023-04-07T15:07:48;13.40;99.90
5697;DHT22;2873;50.966;7.210;2023-04-07T15:10:15;13.40;99.90
5697;DHT22;2873;50.966;7.210;2023-04-07T15:12:43;13.40;99.90
5697;DHT22;2873;50.966;7.210;2023-04-07T15:15:14;13.50;99.90
5697;DHT22;2873;50.966;7.210;2023-04-07T15:17:39;13.40;99.90
5697;DHT22;2873;50.966;7.210;2023-04-07T15:20:05;13.40;99.90
5697;DHT22;2873;50.966;7.210;2023-04-07T15:22:31;13.40;99.90
5697;DHT22;2873;50.966;7.210;2023-04-07T15:24:57;13.30;99.90
5697;DHT22;2873;50.966;7.210;2023-04-07T15:27:22;13.30;99.90
5697;DHT22;2873;50.966;7.210;2023-04-07T15:29:48;13.40;99.90
5697;DHT22;2873;50.966;7.210;2023-04-07T15:32:13;13.30;99.90
5697;DHT22;2873;50.966;7.210;2023-04-07T15:34:39;13.30;99.90
5697;DHT22;2873;50.966;7.210;2023-04-07T15:37:04;13.40;99.90
5697;DHT22;2873;50.966;7.210;2023-04-07T15:39:30;13.40;99.90
5697;DHT22;2873;50.966;7.210;2023-04-07T15:41:55;13.40;99.90
5697;DHT22;2873;50.966;7.210;2023-04-07T15:44:21;13.40;99.90
5697;DHT22;2873;50.966;7.210;2023-04-07T15:46:47;13.40;99.90
5697;DHT22;2873;50.966;7.210;2023-04-07T15:49:13;13.50;99.90
5697;DHT22;2873;50.966;7.210;2023-04-07T15:51:44;13.50;99.90
5697;DHT22;2873;50.966;7.210;2023-04-07T15:54:10;13.50;99.90
5697;DHT22;2873;50.966;7.210;2023-04-07T15:56:35;13.50;99.90
5697;DHT22;2873;50.966;7.210;2023-04-07T15:59:01;13.50;99.90
5697;DHT22;2873;50.966;7.210;2023-04-07T16:01:27;13.60;99.90
5697;DHT22;2873;50.966;7.210;2023-04-07T16:03:52;13.70;99.90
5697;DHT22;2873;50.966;7.210;2023-04-07T16:06:18;13.80;99.90
5697;DHT22;2873;50.966;7.210;2023-04-07T16:08:44;13.80;99.90
5697;DHT22;2873;50.966;7.210;2023-04-07T16:11:09;13.80;99.90
5697;DHT22;2873;50.966;7.210;2023-04-07T16:13:35;13.70;99.90
5697;DHT22;2873;50.966;7.210;2023-04-07T16:16:01;13.80;99.90
5697;DHT22;2873;50.966;7.210;2023-04-07T16:18:26;13.70;99.90
5697;DHT22;2873;50.966;7.210;2023-04-07T16:20:52;13.80;99.90